Time;durP1;ratioP1;P1;durP2;ratioP2;P2;SDS_P1;SDS_P2;PMS_P1;PMS_P2;Temp;Humidity;BMP_temperature;BMP_pressure;BME280_temperature;BME280_humidity;BME280_pressure;Samples;Min_cycle;Max_cycle;Signal;HPM_P1;HPM_P2
2022/04/14 00:01:23;;;;;;;32.20;16.10;;;;;;;12.31;78.64;102076.84;5027065;28;20057;-61
2022/04/14 00:03:48;;;;;;;36.15;17.15;;;;;;;12.33;78.71;102077.69;5028365;28;20096;-60
2022/04/14 00:06:13;;;;;;;33.97;15.75;;;;;;;12.35;78.66;102075.91;5027607;28;20056;-60
2022/04/14 00:08:39;;;;;;;33.92;15.20;;;;;;;12.32;78.72;102067.16;5028353;28;20135;-59
2022/04/14 00:11:04;;;;;;;27.70;13.75;;;;;;;12.33;78.13;102069.75;5026854;28;20407;-60
2022/04/14 00:13:29;;;;;;;22.85;12.55;;;;;;;12.28;78.32;102065.50;5027212;28;20025;-61
2022/04/14 00:15:55;;;;;;;24.50;14.18;;;;;;;12.24;78.11;102072.59;5027185;28;20025;-60
2022/04/14 00:18:20;;;;;;;21.90;13.32;;;;;;;12.16;78.33;102071.91;5027045;28;20021;-57
2022/04/14 00:20:46;;;;;;;35.03;13.68;;;;;;;12.09;78.06;102079.94;5026536;28;20029;-59
2022/04/14 00:23:11;;;;;;;25.65;12.82;;;;;;;12.01;78.85;102066.84;5027465;28;20096;-60
2022/04/14 00:25:36;;;;;;;22.40;12.32;;;;;;;11.93;78.81;102067.91;5047568;28;20434;-60
2022/04/14 00:28:02;;;;;;;27.20;13.75;;;;;;;11.87;79.33;102069.75;5046392;28;20677;-62
2022/04/14 00:30:27;;;;;;;25.17;12.55;;;;;;;11.77;79.10;102070.84;5046463;28;20442;-59
2022/04/14 00:32:53;;;;;;;29.38;12.45;;;;;;;11.69;79.33;102062.22;5045690;28;20479;-60
2022/04/14 00:35:18;;;;;;;23.17;12.45;;;;;;;11.69;79.75;102062.22;5046308;28;20107;-61
2022/04/14 00:37:43;;;;;;;19.40;11.23;;;;;;;11.67;79.58;102058.72;5046848;28;20029;-60
2022/04/14 00:40:09;;;;;;;23.90;12.13;;;;;;;11.62;79.68;102049.13;5047269;28;20055;-60
2022/04/14 00:42:34;;;;;;;26.00;13.30;;;;;;;11.61;79.99;102055.31;5032345;28;20033;-62
2022/04/14 00:45:00;;;;;;;23.98;12.85;;;;;;;11.56;80.08;102057.16;5027421;28;20480;-60
2022/04/14 00:47:25;;;;;;;22.75;12.15;;;;;;;11.53;80.06;102059.00;5026668;28;20019;-60
2022/04/14 00:49:51;;;;;;;22.70;12.57;;;;;;;11.49;80.09;102055.53;5027358;28;20052;-60
2022/04/14 00:52:16;;;;;;;17.90;10.30;;;;;;;11.45;80.00;102059.13;5026707;28;20024;-62
2022/04/14 00:54:42;;;;;;;19.25;10.85;;;;;;;11.45;80.33;102060.00;5026505;28;20017;-61
2022/04/14 00:57:08;;;;;;;18.83;12.27;;;;;;;11.40;80.54;102059.19;5025888;28;20498;-62
2022/04/14 00:59:34;;;;;;;18.02;10.80;;;;;;;11.35;80.43;102054.00;5026154;28;20045;-61
2022/04/14 01:01:59;;;;;;;24.15;12.13;;;;;;;11.30;80.69;102053.22;5148843;22;20042;-61
2022/04/14 01:04:25;;;;;;;21.27;12.13;;;;;;;11.26;80.91;102059.47;5005325;28;20062;-61
2022/04/14 01:06:51;;;;;;;22.58;12.68;;;;;;;11.29;80.52;102053.25;5007827;28;20022;-61
2022/04/14 01:09:20;;;;;;;24.17;13.85;;;;;;;11.32;80.89;102056.69;5004839;28;20037;-61
2022/04/14 01:11:50;;;;;;;28.58;14.23;;;;;;;11.30;81.25;102066.41;5007361;28;20018;-61
2022/04/14 01:14:30;;;;;;;22.75;14.43;;;;;;;11.31;81.16;102060.25;5005485;28;20049;-61
2022/04/14 01:16:56;;;;;;;;;;;;;;;11.36;81.00;102068.97;4988108;28;20389;-60
2022/04/14 01:19:21;;;;;;;29.58;15.07;;;;;;;11.37;81.00;102065.41;4986922;28;20294;-60
2022/04/14 01:22:11;;;;;;;25.55;16.13;;;;;;;11.41;80.91;102070.66;4987890;28;20031;-61
2022/04/14 01:24:37;;;;;;;23.52;15.15;;;;;;;11.44;80.67;102070.59;4996580;28;20030;-61
2022/04/14 01:27:03;;;;;;;27.80;15.85;;;;;;;11.46;80.69;102067.03;5006430;28;20029;-59
2022/04/14 01:29:29;;;;;;;23.00;14.38;;;;;;;11.48;80.61;102067.00;5005320;28;20041;-59
2022/04/14 01:31:55;;;;;;;26.27;15.38;;;;;;;11.49;80.44;102071.38;5006620;28;20030;-60
2022/04/14 01:34:21;;;;;;;28.05;15.35;;;;;;;11.49;80.11;102076.66;5006480;28;20108;-61
2022/04/14 01:36:46;;;;;;;24.90;15.13;;;;;;;11.50;80.29;102078.41;5006506;28;20065;-61
2022/04/14 01:39:13;;;;;;;20.90;13.95;;;;;;;11.47;80.05;102075.81;5006476;28;20100;-61
2022/04/14 01:41:39;;;;;;;27.35;14.38;;;;;;;11.44;79.82;102078.50;5005824;28;20167;-62
2022/04/14 01:44:05;;;;;;;22.98;13.68;;;;;;;11.36;79.94;102082.16;5004564;28;20533;-61
2022/04/14 01:46:30;;;;;;;23.55;14.27;;;;;;;11.30;80.00;102081.38;5005566;28;20080;-61
2022/04/14 01:48:55;;;;;;;19.00;12.38;;;;;;;11.24;80.14;102087.63;5006584;28;20075;-60
2022/04/14 01:51:21;;;;;;;22.75;14.65;;;;;;;11.16;80.53;102082.47;5006049;28;20321;-62
2022/04/14 01:53:46;;;;;;;22.05;13.95;;;;;;;11.09;80.86;102084.34;5006909;28;20117;-61
2022/04/14 01:56:11;;;;;;;22.33;15.20;;;;;;;11.09;80.89;102084.34;5005499;28;20042;-60
2022/04/14 01:58:37;;;;;;;21.52;13.85;;;;;;;11.02;80.97;102098.53;5005497;28;20029;-61
2022/04/14 02:01:02;;;;;;;24.30;13.38;;;;;;;10.99;80.64;102095.94;5005988;28;20037;-60
2022/04/14 02:03:28;;;;;;;26.30;13.35;;;;;;;10.93;80.78;102093.41;5005868;28;20070;-61
2022/04/14 02:05:53;;;;;;;28.83;14.80;;;;;;;10.88;80.88;102093.47;5005620;28;20041;-61
2022/04/14 02:08:18;;;;;;;26.90;15.27;;;;;;;10.82;81.01;102090.91;5005683;28;20076;-60
2022/04/14 02:10:44;;;;;;;23.08;13.73;;;;;;;10.73;81.12;102095.44;5006057;28;20083;-61
2022/04/14 02:13:10;;;;;;;25.52;13.98;;;;;;;10.72;80.88;102092.81;5004023;28;20057;-61
2022/04/14 02:15:35;;;;;;;22.98;13.95;;;;;;;10.68;81.38;102102.53;5005548;28;20515;-61
2022/04/14 02:18:00;;;;;;;26.30;16.00;;;;;;;10.64;81.31;102090.28;5005208;28;20125;-60
2022/04/14 02:20:26;;;;;;;26.60;15.25;;;;;;;10.56;81.46;102093.03;5006076;28;20400;-62
2022/04/14 02:22:51;;;;;;;29.90;14.82;;;;;;;10.49;81.58;102089.63;5004985;28;20488;-61
2022/04/14 02:25:16;;;;;;;22.10;13.40;;;;;;;10.45;81.39;102089.66;5006348;28;20472;-60
2022/04/14 02:27:41;;;;;;;24.10;14.82;;;;;;;10.45;81.94;102089.66;5004701;28;20057;-62
2022/04/14 02:30:08;;;;;;;25.02;13.15;;;;;;;10.36;81.86;102088.84;5003813;28;20053;-65
2022/04/14 02:32:33;;;;;;;26.08;14.15;;;;;;;10.47;81.92;102090.50;5004858;28;20034;-62
2022/04/14 02:34:58;;;;;;;26.45;13.98;;;;;;;10.56;82.19;102094.78;5003847;28;20469;-61
2022/04/14 02:37:23;;;;;;;23.48;14.35;;;;;;;10.58;82.12;102095.66;5004505;28;20033;-60
2022/04/14 02:39:49;;;;;;;25.15;13.55;;;;;;;10.64;82.29;102094.69;5005296;28;20026;-60
2022/04/14 02:42:14;;;;;;;28.98;16.33;;;;;;;10.68;81.99;102097.25;5004069;28;20148;-61
2022/04/14 02:44:39;;;;;;;26.33;15.75;;;;;;;10.66;82.06;102101.69;5005256;28;20628;-61
2022/04/14 02:47:05;;;;;;;21.77;13.07;;;;;;;10.59;81.66;102095.63;5005146;28;20057;-62
2022/04/14 02:49:30;;;;;;;29.45;14.15;;;;;;;10.54;82.06;102097.44;5004990;28;20453;-61
2022/04/14 02:51:55;;;;;;;28.55;15.25;;;;;;;10.55;81.96;102096.56;5005418;28;20025;-60
2022/04/14 02:54:21;;;;;;;28.83;16.15;;;;;;;10.55;82.47;102093.03;5004086;28;20113;-59
2022/04/14 02:56:46;;;;;;;31.52;15.35;;;;;;;10.50;82.40;102095.75;5003844;28;20387;-61
2022/04/14 02:59:11;;;;;;;22.92;14.20;;;;;;;10.50;82.30;102103.66;5004712;28;20492;-60
2022/04/14 03:01:36;;;;;;;28.63;13.57;;;;;;;10.44;82.40;102096.66;5005411;28;20014;-60
2022/04/14 03:04:02;;;;;;;27.40;15.07;;;;;;;10.51;82.60;102096.63;5004884;28;20022;-61
2022/04/14 03:06:27;;;;;;;29.25;14.38;;;;;;;10.51;82.87;102094.00;5005191;28;20033;-61
2022/04/14 03:08:53;;;;;;;21.42;12.85;;;;;;;10.46;82.35;102096.69;5004628;28;20030;-60
2022/04/14 03:11:18;;;;;;;26.88;13.27;;;;;;;10.43;82.69;102099.31;5005912;28;20388;-62
2022/04/14 03:13:43;;;;;;;29.38;14.02;;;;;;;10.40;82.26;102102.88;5003944;28;20034;-61
2022/04/14 03:16:09;;;;;;;22.08;13.02;;;;;;;10.39;82.62;102098.50;5005266;28;20034;-60
2022/04/14 03:18:34;;;;;;;26.75;14.63;;;;;;;10.31;82.46;102097.72;5004051;28;20404;-60
2022/04/14 03:21:01;;;;;;;26.38;14.15;;;;;;;10.31;82.64;102098.59;5004813;28;20041;-60
2022/04/14 03:23:26;;;;;;;21.75;12.10;;;;;;;10.24;82.50;102108.31;5004801;28;20096;-60
2022/04/14 03:25:52;;;;;;;26.77;13.95;;;;;;;10.21;82.83;102102.25;5007671;28;20022;-60
2022/04/14 03:28:17;;;;;;;33.22;14.43;;;;;;;10.36;82.71;102103.81;5008817;28;20018;-61
2022/04/14 03:30:42;;;;;;;29.15;13.60;;;;;;;10.45;82.88;102100.19;5007968;28;20388;-60
2022/04/14 03:33:08;;;;;;;27.08;12.48;;;;;;;10.48;82.77;102098.41;5009105;28;20069;-60
2022/04/14 03:35:33;;;;;;;31.65;14.38;;;;;;;10.46;82.81;102109.84;5007941;28;20113;-61
2022/04/14 03:37:58;;;;;;;26.20;13.80;;;;;;;10.42;82.19;102103.72;5007758;28;20487;-60
2022/04/14 03:40:24;;;;;;;29.13;12.98;;;;;;;10.43;82.65;102105.47;5006684;28;20038;-60
2022/04/14 03:42:49;;;;;;;28.52;13.80;;;;;;;10.42;82.60;102113.41;5008647;28;20022;-61
2022/04/14 03:45:14;;;;;;;21.17;12.40;;;;;;;10.36;82.13;102115.19;4999084;28;20069;-60
2022/04/14 03:47:40;;;;;;;23.17;11.48;;;;;;;10.35;82.30;102112.59;4988776;28;20030;-60
2022/04/14 03:50:05;;;;;;;23.40;12.43;;;;;;;10.36;82.09;102119.63;5000434;28;20107;-60
2022/04/14 03:52:31;;;;;;;28.27;12.13;;;;;;;10.32;82.38;102120.53;5008304;28;20038;-61
2022/04/14 03:54:57;;;;;;;31.25;14.32;;;;;;;10.43;82.34;102116.00;5008133;28;20029;-61
2022/04/14 03:57:22;;;;;;;30.08;14.55;;;;;;;10.51;82.23;102122.97;5007736;28;20480;-60
2022/04/14 03:59:48;;;;;;;27.45;14.48;;;;;;;10.44;82.41;102123.03;5008556;28;20049;-60
2022/04/14 04:02:13;;;;;;;35.10;15.60;;;;;;;10.48;82.02;102116.84;5001853;28;20404;-60
2022/04/14 04:04:38;;;;;;;37.10;15.40;;;;;;;10.47;82.23;102119.50;4991272;28;20026;-63
2022/04/14 04:07:04;;;;;;;29.67;14.98;;;;;;;10.47;82.26;102123.00;5001632;28;20032;-62
2022/04/14 04:09:32;;;;;;;36.20;15.93;;;;;;;10.52;82.15;102117.69;5006949;28;20481;-60
2022/04/14 04:11:58;;;;;;;40.15;16.63;;;;;;;10.54;82.16;102115.88;5007675;28;20026;-61
2022/04/14 04:14:23;;;;;;;33.75;17.65;;;;;;;10.60;82.03;102118.44;5007444;28;20030;-61
2022/04/14 04:16:49;;;;;;;37.72;17.40;;;;;;;10.63;82.03;102112.28;5008461;28;20030;-60
2022/04/14 04:19:14;;;;;;;39.85;16.65;;;;;;;10.64;81.59;102118.41;5007879;28;20037;-59
2022/04/14 04:21:39;;;;;;;31.60;16.25;;;;;;;10.60;81.74;102121.06;5007041;28;21157;-60
2022/04/14 04:24:05;;;;;;;39.65;17.77;;;;;;;10.63;81.62;102109.66;5007869;28;20543;-59
2022/04/14 04:26:30;;;;;;;38.17;18.23;;;;;;;10.63;81.40;102116.66;5007118;28;20017;-61
2022/04/14 04:28:55;;;;;;;46.97;18.95;;;;;;;10.69;81.21;102111.31;5006095;28;20076;-60
2022/04/14 04:31:21;;;;;;;39.35;17.80;;;;;;;10.66;81.28;102112.25;5007712;28;20447;-58
2022/04/14 04:33:51;;;;;;;36.85;17.48;;;;;;;10.69;81.38;102117.44;5008127;28;20412;-62
2022/04/14 04:36:16;;;;;;;43.30;18.92;;;;;;;10.64;81.33;102121.03;5005380;28;20116;-64
2022/04/14 04:38:41;;;;;;;35.90;17.10;;;;;;;10.66;81.46;102121.91;5007465;28;20110;-61
2022/04/14 04:41:07;;;;;;;42.58;18.17;;;;;;;10.67;81.50;102121.88;5007539;28;20337;-61
2022/04/14 04:43:32;;;;;;;36.80;17.20;;;;;;;10.62;81.16;102121.06;5005117;28;20022;-61
2022/04/14 04:45:58;;;;;;;44.15;19.55;;;;;;;10.66;81.01;102121.91;5006763;28;20109;-60
2022/04/14 04:48:23;;;;;;;45.90;19.35;;;;;;;10.69;81.21;102129.78;5006084;28;20022;-61
2022/04/14 04:50:49;;;;;;;40.80;18.23;;;;;;;10.68;81.15;102126.25;5007145;28;20052;-63
2022/04/14 04:53:14;;;;;;;44.20;19.13;;;;;;;10.65;81.09;102133.34;5007167;28;20524;-61
2022/04/14 04:55:39;;;;;;;44.10;19.88;;;;;;;10.67;80.84;102142.09;5006888;28;21144;-61
2022/04/14 04:58:05;;;;;;;39.13;18.85;;;;;;;10.68;80.88;102133.28;5004616;28;20036;-63
2022/04/14 05:00:31;;;;;;;40.97;17.95;;;;;;;10.71;80.62;102138.50;5006366;28;20010;-62
2022/04/14 05:02:56;;;;;;;39.50;17.48;;;;;;;10.59;80.89;102145.69;5007009;28;20046;-62
2022/04/14 05:05:23;;;;;;;40.15;17.75;;;;;;;10.56;80.88;102145.75;5006814;28;20018;-62
2022/04/14 05:07:49;;;;;;;45.30;19.55;;;;;;;10.59;81.16;102153.63;5006865;28;20071;-63
2022/04/14 05:10:14;;;;;;;41.25;18.42;;;;;;;10.63;80.75;102149.19;5007115;28;20034;-62
2022/04/14 05:12:40;;;;;;;40.28;18.27;;;;;;;10.58;81.45;102158.91;5005092;28;20053;-62
2022/04/14 05:15:05;;;;;;;45.65;18.80;;;;;;;10.59;81.17;102158.88;5000025;28;20022;-61
2022/04/14 05:17:31;;;;;;;33.97;15.07;;;;;;;10.56;81.11;102158.91;4995365;28;20038;-60
2022/04/14 05:19:56;;;;;;;37.72;17.38;;;;;;;10.60;81.19;102160.63;4995561;28;20030;-59
2022/04/14 05:22:21;;;;;;;45.22;17.35;;;;;;;10.64;81.35;102163.22;4996554;28;20092;-60
2022/04/14 05:24:47;;;;;;;38.50;18.77;;;;;;;10.69;81.46;102170.16;4997680;28;20030;-61
2022/04/14 05:27:12;;;;;;;44.35;18.10;;;;;;;10.76;81.26;102170.09;4993534;28;20033;-61
2022/04/14 05:29:37;;;;;;;40.28;17.23;;;;;;;10.84;80.77;102174.38;4995490;28;20022;-61
2022/04/14 05:32:03;;;;;;;38.15;17.27;;;;;;;10.87;80.79;102171.69;5002450;28;20038;-61
2022/04/14 05:34:28;;;;;;;37.42;17.50;;;;;;;10.94;80.76;102168.97;5005046;28;20026;-60
2022/04/14 05:36:53;;;;;;;37.63;17.08;;;;;;;10.98;80.34;102171.56;4991025;28;20037;-62
2022/04/14 05:39:19;;;;;;;35.65;17.27;;;;;;;11.04;80.02;102173.22;4994230;28;20022;-59
2022/04/14 05:41:44;;;;;;;31.98;17.23;;;;;;;11.06;79.90;102176.72;5003731;28;20022;-61
2022/04/14 05:44:09;;;;;;;33.78;15.90;;;;;;;11.10;79.91;102175.78;5004851;28;20846;-61
2022/04/14 05:46:35;;;;;;;33.05;15.90;;;;;;;11.18;80.04;102174.78;4994252;28;20581;-65
2022/04/14 05:49:00;;;;;;;36.38;16.23;;;;;;;11.22;79.85;102181.75;4995188;28;20026;-64
2022/04/14 05:51:26;;;;;;;28.20;14.93;;;;;;;11.24;79.73;102177.34;4997317;28;20041;-63
2022/04/14 05:53:53;;;;;;;33.10;16.50;;;;;;;11.36;79.11;102179.78;5004962;28;20022;-64
2022/04/14 05:56:19;;;;;;;29.83;15.93;;;;;;;11.43;78.88;102180.56;5004641;28;20037;-60
2022/04/14 05:58:44;;;;;;;26.00;14.55;;;;;;;11.49;78.58;102177.81;5003920;28;20033;-59
2022/04/14 06:01:09;;;;;;;30.80;14.77;;;;;;;11.57;78.67;102190.91;5005586;28;20104;-60
2022/04/14 06:03:35;;;;;;;28.13;14.82;;;;;;;11.59;78.30;102173.25;5004511;28;20072;-58
2022/04/14 06:06:00;;;;;;;26.80;15.52;;;;;;;11.65;78.09;102179.34;5005406;28;20053;-60
2022/04/14 06:08:25;;;;;;;29.67;14.05;;;;;;;11.74;78.06;102177.41;5005903;28;20017;-61
2022/04/14 06:10:51;;;;;;;28.60;15.82;;;;;;;11.87;77.76;102180.69;5004339;28;20446;-64
2022/04/14 06:13:16;;;;;;;24.02;14.25;;;;;;;11.88;77.58;102181.56;5005049;28;20091;-63
2022/04/14 06:15:42;;;;;;;28.48;15.07;;;;;;;11.91;77.91;102180.63;5004430;28;20045;-61
2022/04/14 06:18:08;;;;;;;30.10;15.57;;;;;;;11.99;77.63;102176.09;5004590;28;20084;-63
2022/04/14 06:20:33;;;;;;;28.98;15.52;;;;;;;11.94;77.96;102180.59;5004693;28;20022;-62
2022/04/14 06:22:58;;;;;;;29.88;15.27;;;;;;;12.11;77.52;102172.38;5003293;28;20500;-63
2022/04/14 06:25:24;;;;;;;21.55;13.95;;;;;;;12.10;77.78;102174.16;5004162;28;20107;-63
2022/04/14 06:27:51;;;;;;;21.67;13.38;;;;;;;12.23;77.26;102180.09;5005558;28;20018;-62
2022/04/14 06:30:18;;;;;;;26.08;13.90;;;;;;;12.24;77.61;102196.81;5004854;28;20072;-62
2022/04/14 06:32:57;;;;;;;20.08;13.13;;;;;;;12.40;77.11;102193.88;5004367;28;20163;-66
2022/04/14 06:35:23;;;;;;;22.55;13.85;;;;;;;12.50;77.19;102191.00;5004751;28;20025;-64
2022/04/14 06:37:48;;;;;;;22.20;14.40;;;;;;;12.54;77.16;102191.81;5003799;28;20030;-62
2022/04/14 06:40:13;;;;;;;26.92;14.00;;;;;;;12.66;76.60;102189.81;4998834;28;20022;-62
2022/04/14 06:42:39;;;;;;;30.88;15.95;;;;;;;12.58;76.20;102193.47;4995209;28;20084;-62
2022/04/14 06:45:04;;;;;;;28.13;14.20;;;;;;;12.62;76.28;102195.16;5005035;28;20018;-62
2022/04/14 06:47:30;;;;;;;24.92;13.48;;;;;;;12.74;76.41;102187.88;5003667;28;20065;-63
2022/04/14 06:49:55;;;;;;;19.40;12.88;;;;;;;12.85;76.18;102196.44;5004357;28;20049;-66
2022/04/14 06:52:21;;;;;;;25.33;13.95;;;;;;;12.92;75.46;102196.31;5002114;28;20460;-63
2022/04/14 06:54:47;;;;;;;28.63;14.57;;;;;;;13.11;75.19;102199.41;5005156;28;20014;-63
2022/04/14 06:57:12;;;;;;;24.92;14.85;;;;;;;13.18;74.53;102210.75;5002519;28;20038;-63
2022/04/14 06:59:37;;;;;;;28.38;15.57;;;;;;;13.05;74.48;102213.66;5005410;28;20021;-63
2022/04/14 07:02:03;;;;;;;27.75;14.93;;;;;;;12.99;75.77;102208.50;5006695;28;20046;-64
2022/04/14 07:04:28;;;;;;;25.33;13.43;;;;;;;13.03;75.40;102212.81;5008721;28;20037;-61
2022/04/14 07:06:54;;;;;;;26.77;15.18;;;;;;;12.93;75.82;102213.91;5007770;28;20057;-63
2022/04/14 07:09:20;;;;;;;25.83;14.10;;;;;;;13.09;75.43;102217.09;5007829;28;20503;-63
2022/04/14 07:11:45;;;;;;;25.17;13.90;;;;;;;13.19;74.87;102215.13;5007186;28;20043;-62
2022/04/14 07:14:11;;;;;;;27.10;14.70;;;;;;;13.26;75.22;102211.44;5007489;28;20026;-67
2022/04/14 07:16:36;;;;;;;20.33;12.93;;;;;;;13.37;75.34;102214.69;5007492;28;20033;-66
2022/04/14 07:19:01;;;;;;;25.65;12.68;;;;;;;13.52;74.62;102225.88;5007372;28;20022;-67
2022/04/14 07:21:27;;;;;;;21.15;11.15;;;;;;;13.64;74.67;102220.25;5007237;28;20109;-67
2022/04/14 07:23:52;;;;;;;24.80;12.52;;;;;;;13.77;73.19;102219.94;5007172;28;20093;-67
2022/04/14 07:26:18;;;;;;;20.40;12.43;;;;;;;13.66;74.07;102225.50;5007724;28;20105;-68
2022/04/14 07:28:43;;;;;;;21.88;11.18;;;;;;;13.96;73.62;102224.75;4998059;28;20034;-62
2022/04/14 07:31:08;;;;;;;26.15;11.15;;;;;;;14.06;72.65;102225.41;5007468;28;20453;-63
2022/04/14 07:33:34;;;;;;;19.88;11.10;;;;;;;14.25;72.61;102221.38;5005285;28;20125;-63
2022/04/14 07:35:59;;;;;;;20.25;10.65;;;;;;;14.43;71.90;102224.41;5007621;28;20461;-64
2022/04/14 07:38:25;;;;;;;23.42;10.98;;;;;;;14.62;71.35;102216.78;5006718;28;20042;-63
2022/04/14 07:40:50;;;;;;;20.00;9.70;;;;;;;14.58;71.22;102217.81;5015220;28;20022;-65
2022/04/14 07:43:15;;;;;;;20.85;11.07;;;;;;;14.64;70.82;102222.06;4996154;28;20025;-66
2022/04/14 07:45:42;;;;;;;22.58;10.43;;;;;;;14.61;70.49;102225.69;5006099;28;20376;-67
2022/04/14 07:48:08;;;;;;;20.02;11.20;;;;;;;14.49;71.20;102233.97;5007109;28;20030;-70
2022/04/14 07:50:34;;;;;;;18.15;10.20;;;;;;;14.57;70.93;102239.91;4996821;28;20030;-69
2022/04/14 07:52:59;;;;;;;21.77;9.95;;;;;;;14.67;70.64;102237.88;4998418;28;20058;-64
2022/04/14 07:55:35;;;;;;;19.80;9.68;;;;;;;14.88;70.75;102238.19;5002579;28;20029;-64
2022/04/14 07:58:05;;;;;;;16.65;9.18;;;;;;;15.10;70.01;102241.06;5006028;28;20042;-64
2022/04/14 08:00:31;;;;;;;17.83;9.57;;;;;;;15.25;69.67;102238.84;5005618;28;20471;-62
2022/04/14 08:03:00;;;;;;;24.02;9.88;;;;;;;15.30;68.88;102236.94;5006965;28;20030;-64
2022/04/14 08:05:34;;;;;;;18.17;9.60;;;;;;;15.31;68.82;102230.69;5005479;28;20272;-63
2022/04/14 08:08:03;;;;;;;25.27;11.05;;;;;;;15.20;68.88;102239.00;5007498;28;20034;-66
2022/04/14 08:10:29;;;;;;;16.80;9.48;;;;;;;15.26;69.21;102232.66;5005350;28;20400;-63
2022/04/14 08:12:54;;;;;;;15.82;9.75;;;;;;;15.26;68.87;102237.97;5003727;28;20129;-68
2022/04/14 08:15:20;;;;;;;16.60;9.60;;;;;;;15.32;68.99;102229.75;5006562;28;20025;-69
2022/04/14 08:17:45;;;;;;;21.27;11.15;;;;;;;15.26;68.89;102236.16;5005717;28;20524;-68
2022/04/14 08:20:13;;;;;;;19.92;10.88;;;;;;;15.42;69.26;102233.00;5007193;28;20479;-69
2022/04/14 08:22:44;;;;;;;18.85;9.65;;;;;;;15.61;68.45;102235.06;5005786;28;20120;-63
2022/04/14 08:25:09;;;;;;;20.42;10.25;;;;;;;15.60;68.14;102239.53;5005296;28;20065;-64
2022/04/14 08:27:35;;;;;;;15.38;9.95;;;;;;;15.57;68.29;102236.97;5004417;28;20519;-67
2022/04/14 08:30:00;;;;;;;24.50;10.00;;;;;;;15.52;68.63;102233.56;5000623;28;20487;-69
2022/04/14 08:32:25;;;;;;;17.67;8.75;;;;;;;15.70;67.88;102225.91;5002417;28;20112;-68
2022/04/14 08:34:51;;;;;;;12.38;8.80;;;;;;;15.81;67.19;102231.75;4998158;28;20018;-61
2022/04/14 08:37:16;;;;;;;13.15;9.15;;;;;;;15.76;66.89;102233.69;4995937;28;20034;-63
2022/04/14 08:39:41;;;;;;;14.80;8.63;;;;;;;15.98;66.43;102227.69;4999758;28;20064;-60
2022/04/14 08:42:15;;;;;;;15.75;8.85;;;;;;;16.15;65.03;102230.63;5003511;28;20044;-69
2022/04/14 08:44:47;;;;;;;15.63;8.40;;;;;;;16.23;65.18;102216.16;5001344;28;20030;-68
2022/04/14 08:47:15;;;;;;;13.80;7.75;;;;;;;16.38;65.23;102210.28;5005641;28;20117;-69
2022/04/14 08:49:40;;;;;;;15.50;8.75;;;;;;;16.29;64.80;102213.28;5002229;28;20765;-66
2022/04/14 08:52:06;;;;;;;12.98;8.65;;;;;;;16.49;65.14;102206.34;4995586;28;20014;-63
2022/04/14 08:54:32;;;;;;;14.57;8.90;;;;;;;16.59;65.01;102202.44;4996960;28;20032;-63
2022/04/14 08:56:58;;;;;;;18.48;8.13;;;;;;;16.62;64.57;102199.66;4996739;28;20026;-61
2022/04/14 08:59:24;;;;;;;12.90;6.80;;;;;;;16.98;63.41;102203.59;4995412;28;20050;-61
2022/04/14 09:01:50;;;;;;;20.27;8.10;;;;;;;17.03;62.52;102198.09;5003243;28;20440;-63
2022/04/14 09:04:15;;;;;;;14.02;7.70;;;;;;;17.15;62.23;102199.44;5005392;28;20040;-61
2022/04/14 09:06:41;;;;;;;12.93;6.80;;;;;;;17.31;61.99;102199.72;4999857;28;20022;-63
2022/04/14 09:09:06;;;;;;;17.08;6.72;;;;;;;17.24;61.65;102199.06;4994651;28;20030;-61
2022/04/14 09:11:31;;;;;;;12.55;7.07;;;;;;;17.35;62.21;102198.66;4994122;28;20038;-60
2022/04/14 09:13:59;;;;;;;13.75;5.60;;;;;;;17.59;61.36;102203.88;5004400;28;20029;-61
2022/04/14 09:16:26;;;;;;;13.15;7.50;;;;;;;17.54;61.38;102200.53;5004986;28;20034;-62
2022/04/14 09:18:53;;;;;;;14.52;7.32;;;;;;;17.26;62.48;102207.00;5005960;28;20022;-61
2022/04/14 09:21:19;;;;;;;11.38;6.60;;;;;;;17.43;61.22;102219.66;5002652;28;20488;-62
2022/04/14 09:23:53;;;;;;;16.73;7.57;;;;;;;17.49;61.43;102219.38;4996970;28;20034;-63
2022/04/14 09:26:23;;;;;;;12.13;5.70;;;;;;;17.49;60.10;102230.03;4999463;28;20080;-63
2022/04/14 09:29:06;;;;;;;10.82;5.88;;;;;;;17.49;60.51;102229.19;4998064;28;20499;-63
2022/04/14 09:31:51;;;;;;;10.18;6.72;;;;;;;17.71;60.35;102238.94;4998886;28;20064;-61
2022/04/14 09:34:19;;;;;;;7.75;6.30;;;;;;;17.79;60.21;102242.16;4996689;28;20029;-62
2022/04/14 09:37:11;;;;;;;13.10;7.10;;;;;;;17.91;60.33;102246.09;5000998;28;20112;-63
2022/04/14 09:40:02;;;;;;;11.80;7.05;;;;;;;18.09;59.24;102254.25;4996106;28;20044;-63
2022/04/14 09:42:30;;;;;;;16.45;6.78;;;;;;;18.18;59.22;102260.06;5001256;28;20040;-63
2022/04/14 09:45:16;;;;;;;10.83;4.73;;;;;;;18.30;57.97;102257.78;5005548;28;20479;-65
2022/04/14 09:47:41;;;;;;;14.20;5.10;;;;;;;18.28;58.72;102259.66;5004079;28;20029;-65
2022/04/14 09:50:26;;;;;;;14.98;7.82;;;;;;;18.55;58.89;102262.88;4995468;28;20025;-64
2022/04/14 09:53:06;;;;;;;9.90;7.43;;;;;;;18.56;58.45;102256.63;5002051;28;20178;-63
2022/04/14 09:55:33;;;;;;;13.75;7.55;;;;;;;18.72;58.75;102261.25;4999179;28;20083;-62
2022/04/14 09:58:06;;;;;;;12.38;7.72;;;;;;;18.92;58.48;102256.78;4992056;28;20029;-65
2022/04/14 10:00:41;;;;;;;14.07;7.47;;;;;;;19.22;56.93;102256.31;5001532;28;20109;-64
2022/04/14 10:03:18;;;;;;;12.25;6.65;;;;;;;19.23;56.32;102258.03;5002217;28;20038;-65
2022/04/14 10:05:45;;;;;;;13.63;7.53;;;;;;;19.33;55.79;102253.13;4995920;28;20460;-64
2022/04/14 10:08:10;;;;;;;11.00;5.88;;;;;;;19.97;55.45;102259.78;5004162;28;20435;-65
2022/04/14 10:10:37;;;;;;;10.32;6.38;;;;;;;20.26;54.35;102257.44;5002272;28;20032;-65
2022/04/14 10:13:07;;;;;;;13.43;6.10;;;;;;;20.54;52.96;102254.16;5004494;28;20018;-65
2022/04/14 10:15:37;;;;;;;9.30;5.95;;;;;;;20.49;53.22;102260.69;5003928;28;20439;-65
2022/04/14 10:18:06;;;;;;;12.57;6.57;;;;;;;20.16;53.19;102255.25;5005020;28;20029;-64
2022/04/14 10:20:32;;;;;;;11.27;6.45;;;;;;;20.19;53.31;102263.13;4998845;28;20552;-68
2022/04/14 10:22:59;;;;;;;10.43;6.13;;;;;;;19.83;54.32;102256.00;4994309;28;20055;-64
2022/04/14 10:25:25;;;;;;;11.20;5.93;;;;;;;19.41;55.60;102258.94;5001052;28;20052;-69
2022/04/14 10:27:53;;;;;;;8.82;5.65;;;;;;;19.45;55.26;102257.00;5002697;28;20018;-67
2022/04/14 10:30:20;;;;;;;7.97;5.05;;;;;;;19.43;55.28;102246.41;5005404;28;20381;-68
2022/04/14 10:32:46;;;;;;;10.20;5.63;;;;;;;19.56;55.65;102256.47;5004890;28;20014;-67
2022/04/14 10:35:11;;;;;;;6.63;4.80;;;;;;;19.68;54.51;102255.84;5002481;28;20041;-65
2022/04/14 10:37:46;;;;;;;8.40;4.30;;;;;;;19.65;54.23;102256.00;5004874;28;20152;-65
2022/04/14 10:40:12;;;;;;;11.13;5.07;;;;;;;19.72;54.21;102253.03;5001667;28;20105;-72
2022/04/14 10:42:43;;;;;;;7.57;4.10;;;;;;;20.39;52.82;102261.22;4991508;28;20421;-73
2022/04/14 10:45:50;;;;;;;7.10;3.78;;;;;;;21.00;51.28;102259.75;4992056;28;20049;-71
2022/04/14 10:48:35;;;;;;;7.07;4.40;;;;;;;21.21;50.62;102250.53;4992165;28;20042;-69
2022/04/14 10:51:19;;;;;;;14.52;4.68;;;;;;;20.81;51.12;102258.97;5001457;28;20037;-76
2022/04/14 10:53:55;;;;;;;12.07;4.72;;;;;;;20.55;51.75;102257.69;4996120;28;20035;-67
2022/04/14 10:56:42;;;;;;;10.18;4.47;;;;;;;20.33;52.64;102258.84;5000598;28;20125;-64
2022/04/14 10:59:11;;;;;;;7.28;4.15;;;;;;;19.98;53.63;102261.53;5002695;28;20030;-63
2022/04/14 11:01:45;;;;;;;6.95;3.88;;;;;;;19.72;54.65;102263.72;5003051;28;20112;-59
2022/04/14 11:04:37;;;;;;;8.30;3.78;;;;;;;19.67;54.82;102266.63;4997518;28;20046;-58
2022/04/14 11:07:16;;;;;;;10.30;4.55;;;;;;;19.83;53.47;102270.25;4994473;28;20045;-63
2022/04/14 11:10:00;;;;;;;6.47;4.13;;;;;;;20.24;52.48;102273.59;4989568;28;20034;-63
2022/04/14 11:12:32;;;;;;;8.05;3.92;;;;;;;20.53;52.13;102270.31;4984225;28;20031;-63